Terminal Aerodrome Forecast
Issued by NWS Cleveland, OH

Home | Current Version | Previous Version | Text Only | Print | Product List | Glossary Off
Versions: 1 2 3 4 5 6 7 8 9 10 11 12 13 14 15 16

257
FTUS41 KCLE 200532
TAFMFD
TAF
KMFD 200532Z 2006/2106 00000KT P6SM SCT025 BKN100
     FM200900 00000KT 3SM BR BKN012
      TEMPO 2009/2013 1 1/2SM BR BKN008
     FM201500 23005KT P6SM BKN035
     FM201900 28006KT P6SM VCTS BKN040CB
     FM202300 35006KT P6SM SCT040=

USA.gov is the U.S. government's official web portal to all federal, state and local government web resources and services.